createdAt,value
2023-02-13T00:00:59.736Z,99.99
2023-02-13T00:01:59.504Z,99.99
2023-02-13T00:02:59.450Z,99.99
2023-02-13T00:03:59.457Z,99.99
2023-02-13T00:04:59.417Z,99.99
2023-02-13T00:05:59.371Z,99.99
2023-02-13T00:06:59.343Z,99.99
2023-02-13T00:07:59.321Z,99.99
2023-02-13T00:08:59.287Z,99.99
2023-02-13T00:09:59.274Z,99.99
2023-02-13T00:10:59.552Z,99.99
2023-02-13T00:11:59.219Z,99.99
2023-02-13T00:12:59.198Z,99.99
2023-02-13T00:13:59.171Z,99.99
2023-02-13T00:14:59.153Z,99.99
2023-02-13T00:15:59.158Z,99.99
2023-02-13T00:16:59.096Z,99.99
2023-02-13T00:17:59.063Z,99.99
2023-02-13T00:18:59.037Z,99.99
2023-02-13T00:19:59.019Z,99.99
2023-02-13T00:20:59.107Z,99.99
2023-02-13T00:21:58.979Z,99.99
2023-02-13T00:22:58.946Z,99.99
2023-02-13T00:23:58.918Z,99.99
2023-02-13T00:24:58.882Z,99.99
2023-02-13T00:25:58.864Z,99.99
2023-02-13T00:26:58.860Z,99.99
2023-02-13T00:27:58.818Z,99.99
2023-02-13T00:28:58.779Z,99.99
2023-02-13T00:29:58.760Z,99.99
2023-02-13T00:30:59.133Z,99.99
2023-02-13T00:31:58.785Z,99.99
2023-02-13T00:32:58.688Z,99.99
2023-02-13T00:33:58.659Z,99.99
2023-02-13T00:34:58.636Z,99.99
2023-02-13T00:35:58.596Z,99.99
2023-02-13T00:36:58.601Z,99.99
2023-02-13T00:37:58.564Z,99.99
2023-02-13T00:38:58.531Z,99.99
2023-02-13T00:39:58.540Z,99.99
2023-02-13T00:40:58.733Z,99.99
2023-02-13T00:41:58.448Z,99.99
2023-02-13T00:42:58.420Z,99.99
2023-02-13T00:43:58.402Z,99.99
2023-02-13T00:44:58.369Z,99.99
2023-02-13T00:45:58.372Z,99.99
2023-02-13T00:46:58.321Z,99.99
2023-02-13T00:47:58.284Z,99.99
2023-02-13T00:48:58.275Z,99.99
2023-02-13T00:49:58.258Z,99.99
2023-02-13T00:50:58.595Z,99.99
2023-02-13T00:51:58.186Z,99.99
2023-02-13T00:52:58.159Z,99.99
2023-02-13T00:53:58.151Z,99.99
2023-02-13T00:54:58.114Z,99.99
2023-02-13T00:55:58.088Z,99.99
2023-02-13T00:56:58.055Z,99.99
2023-02-13T00:57:58.029Z,99.99
2023-02-13T00:58:58.024Z,99.99
2023-02-13T00:59:58.007Z,99.99
2023-02-13T01:00:58.402Z,99.99
2023-02-13T01:01:57.972Z,99.99
2023-02-13T01:02:57.899Z,99.99
2023-02-13T01:03:57.966Z,99.99
2023-02-13T01:04:57.856Z,99.99
2023-02-13T01:05:57.832Z,99.99
2023-02-13T01:06:57.806Z,99.99
2023-02-13T01:07:57.780Z,99.99
2023-02-13T01:08:57.752Z,99.99
2023-02-13T01:09:57.730Z,99.99
2023-02-13T01:10:58.054Z,99.99
2023-02-13T01:11:57.682Z,99.99
2023-02-13T01:12:57.642Z,99.99
2023-02-13T01:13:57.633Z,99.99
2023-02-13T01:14:57.610Z,99.99
2023-02-13T01:15:57.610Z,99.99
2023-02-13T01:16:57.564Z,99.99
2023-02-13T01:17:57.582Z,99.99
2023-02-13T01:18:57.487Z,99.99
2023-02-13T01:19:57.466Z,99.99
2023-02-13T01:20:57.833Z,99.99
2023-02-13T01:21:57.416Z,99.99
2023-02-13T01:22:57.390Z,99.99
2023-02-13T01:23:57.360Z,99.99
2023-02-13T01:24:57.357Z,99.99
2023-02-13T01:25:57.312Z,99.99
2023-02-13T01:26:57.299Z,99.99
2023-02-13T01:27:57.267Z,99.99
2023-02-13T01:28:57.228Z,99.99
2023-02-13T01:29:57.222Z,99.99
2023-02-13T01:30:57.617Z,99.99
2023-02-13T01:31:57.237Z,99.99
2023-02-13T01:32:57.128Z,99.99
2023-02-13T01:33:57.106Z,99.99
2023-02-13T01:34:57.079Z,99.99
2023-02-13T01:35:57.091Z,99.99
2023-02-13T01:36:57.040Z,99.99
2023-02-13T01:37:57.009Z,99.99
2023-02-13T01:38:56.968Z,99.99
2023-02-13T01:39:56.949Z,99.99
2023-02-13T01:40:57.245Z,99.99
2023-02-13T01:41:56.893Z,99.99
2023-02-13T01:42:56.867Z,99.99
2023-02-13T01:43:56.907Z,99.99
2023-02-13T01:44:56.813Z,99.99
2023-02-13T01:45:56.786Z,99.99
2023-02-13T01:46:56.816Z,99.99
2023-02-13T01:47:56.748Z,99.99
2023-02-13T01:48:56.715Z,99.99
2023-02-13T01:49:56.681Z,99.99
2023-02-13T01:50:57.081Z,99.99
2023-02-13T01:51:56.629Z,99.99
2023-02-13T01:52:56.602Z,99.99
2023-02-13T01:53:56.607Z,99.99
2023-02-13T01:54:56.552Z,99.99
2023-02-13T01:55:56.520Z,99.99
2023-02-13T01:56:56.508Z,99.99
2023-02-13T01:57:56.469Z,99.99
2023-02-13T01:58:56.443Z,99.99
2023-02-13T01:59:56.425Z,99.99
2023-02-13T02:00:56.667Z,99.99
2023-02-13T02:01:56.460Z,99.99
2023-02-13T02:02:56.337Z,99.99
2023-02-13T02:03:56.354Z,99.99
2023-02-13T02:04:56.295Z,99.99
2023-02-13T02:05:56.273Z,99.99
2023-02-13T02:06:56.231Z,99.99
2023-02-13T02:07:56.224Z,99.99
2023-02-13T02:08:56.179Z,99.99
2023-02-13T02:09:56.180Z,99.99
2023-02-13T02:10:56.484Z,99.99
2023-02-13T02:11:56.152Z,99.99
2023-02-13T02:12:56.073Z,99.99
2023-02-13T02:13:56.081Z,99.99
2023-02-13T02:14:56.025Z,99.99
2023-02-13T02:15:56.102Z,99.99
2023-02-13T02:16:56.036Z,99.99
2023-02-13T02:17:55.971Z,99.99
2023-02-13T02:18:55.930Z,99.99
2023-02-13T02:19:55.909Z,99.99
2023-02-13T02:20:56.243Z,99.99
2023-02-13T02:21:55.878Z,99.99
2023-02-13T02:22:55.883Z,99.99
2023-02-13T02:23:55.794Z,99.99
2023-02-13T02:24:55.769Z,99.99
2023-02-13T02:25:55.756Z,99.99
2023-02-13T02:26:55.720Z,99.99
2023-02-13T02:27:55.692Z,99.99
2023-02-13T02:28:55.657Z,99.99
2023-02-13T02:29:55.631Z,99.99
2023-02-13T02:30:56.095Z,99.99
2023-02-13T02:31:55.649Z,99.99
2023-02-13T02:32:55.557Z,99.99
2023-02-13T02:33:55.552Z,99.99
2023-02-13T02:34:55.493Z,99.99
2023-02-13T02:35:55.494Z,99.99
2023-02-13T02:36:55.445Z,99.99
2023-02-13T02:37:55.438Z,99.99
2023-02-13T02:38:55.401Z,99.99
2023-02-13T02:39:55.368Z,99.99
2023-02-13T02:40:55.736Z,99.99
2023-02-13T02:41:55.322Z,99.99
2023-02-13T02:42:55.286Z,99.99
2023-02-13T02:43:55.275Z,99.99
2023-02-13T02:44:55.260Z,99.99
2023-02-13T02:45:55.230Z,99.99
2023-02-13T02:46:55.201Z,99.99
2023-02-13T02:47:55.146Z,99.99
2023-02-13T02:48:55.118Z,99.99
2023-02-13T02:49:55.092Z,99.99
2023-02-13T02:50:55.279Z,99.99
2023-02-13T02:51:55.066Z,99.99
2023-02-13T02:52:55.093Z,99.99
2023-02-13T02:53:54.988Z,99.99
2023-02-13T02:54:54.965Z,99.99
2023-02-13T02:55:54.930Z,99.99
2023-02-13T02:56:54.902Z,99.99
2023-02-13T02:57:54.873Z,99.99
2023-02-13T02:58:54.855Z,99.99
2023-02-13T02:59:54.838Z,99.99
2023-02-13T03:00:55.101Z,99.99
2023-02-13T03:01:54.798Z,99.99
2023-02-13T03:02:54.742Z,99.99
2023-02-13T03:03:54.813Z,99.99
2023-02-13T03:04:54.814Z,99.99
2023-02-13T03:05:54.690Z,99.99
2023-02-13T03:06:54.649Z,99.99
2023-02-13T03:07:54.677Z,99.99
2023-02-13T03:08:54.579Z,99.99
2023-02-13T03:09:54.574Z,99.99
2023-02-13T03:10:54.627Z,99.99
2023-02-13T03:11:54.549Z,99.99
2023-02-13T03:12:54.476Z,99.99
2023-02-13T03:13:54.444Z,99.99
2023-02-13T03:14:54.460Z,99.99
2023-02-13T03:15:54.412Z,99.99
2023-02-13T03:16:54.399Z,99.99
2023-02-13T03:17:54.346Z,99.99
2023-02-13T03:18:54.320Z,99.99
2023-02-13T03:19:54.343Z,99.99
2023-02-13T03:20:54.261Z,99.99
2023-02-13T03:21:54.226Z,99.99
2023-02-13T03:22:54.210Z,99.99
2023-02-13T03:23:54.181Z,99.99
2023-02-13T03:24:54.144Z,99.99
2023-02-13T03:25:54.130Z,99.99
2023-02-13T03:26:54.088Z,99.99
2023-02-13T03:27:54.070Z,99.99
2023-02-13T03:28:54.036Z,99.99
2023-02-13T03:29:54.011Z,99.99
2023-02-13T03:30:54.071Z,99.99
2023-02-13T03:31:54.037Z,99.99
2023-02-13T03:32:53.940Z,99.99
2023-02-13T03:33:53.903Z,99.99
2023-02-13T03:34:53.875Z,99.99
2023-02-13T03:35:53.845Z,99.99
2023-02-13T03:36:53.826Z,99.99
2023-02-13T03:37:53.852Z,99.99
2023-02-13T03:38:53.768Z,99.99
2023-02-13T03:39:53.741Z,99.99
2023-02-13T03:40:53.737Z,99.99
2023-02-13T03:41:53.687Z,99.99
2023-02-13T03:42:53.680Z,99.99
2023-02-13T03:43:53.626Z,99.99
2023-02-13T03:44:53.613Z,99.99
2023-02-13T03:45:53.643Z,99.99
2023-02-13T03:46:53.566Z,99.99
2023-02-13T03:47:53.523Z,99.99
2023-02-13T03:48:53.518Z,99.99
2023-02-13T03:49:53.465Z,99.99
2023-02-13T03:50:53.451Z,99.99
2023-02-13T03:51:53.410Z,99.99
2023-02-13T03:52:53.388Z,99.99
2023-02-13T03:53:53.359Z,99.99
2023-02-13T03:54:53.363Z,99.99
2023-02-13T03:55:53.309Z,99.99
2023-02-13T03:56:53.281Z,99.99
2023-02-13T03:57:53.255Z,99.99
2023-02-13T03:58:53.234Z,99.99
2023-02-13T03:59:53.226Z,99.99
2023-02-13T04:00:53.193Z,99.99
2023-02-13T04:01:53.173Z,99.99
2023-02-13T04:02:53.128Z,99.99
2023-02-13T04:03:53.094Z,99.99
2023-02-13T04:04:53.063Z,99.99
2023-02-13T04:05:53.034Z,99.99
2023-02-13T04:06:53.019Z,99.99
2023-02-13T04:07:52.979Z,99.99
2023-02-13T04:08:52.951Z,99.99
2023-02-13T04:09:52.921Z,99.99
2023-02-13T04:10:52.904Z,99.99
2023-02-13T04:11:52.893Z,99.99
2023-02-13T04:12:52.845Z,99.99
2023-02-13T04:13:52.816Z,99.99
2023-02-13T04:14:52.814Z,99.99
2023-02-13T04:15:52.754Z,99.99
2023-02-13T04:16:52.820Z,99.99
2023-02-13T04:17:52.758Z,99.99
2023-02-13T04:18:52.681Z,99.99
2023-02-13T04:19:52.649Z,99.99
2023-02-13T04:20:52.640Z,99.99
2023-02-13T04:21:52.605Z,99.99
2023-02-13T04:22:52.584Z,99.99
2023-02-13T04:23:52.542Z,99.99
2023-02-13T04:24:52.524Z,99.99
2023-02-13T04:25:52.521Z,99.99
2023-02-13T04:26:52.473Z,99.99
2023-02-13T04:27:52.435Z,99.99
2023-02-13T04:28:52.440Z,99.99
2023-02-13T04:29:52.392Z,99.99
2023-02-13T04:30:52.475Z,99.99
2023-02-13T04:31:52.571Z,99.99
2023-02-13T04:32:52.305Z,99.99
2023-02-13T04:33:52.303Z,99.99
2023-02-13T04:34:52.243Z,99.99
2023-02-13T04:35:52.217Z,99.99
2023-02-13T04:36:52.254Z,99.99
2023-02-13T04:37:52.162Z,99.99
2023-02-13T04:38:52.159Z,99.99
2023-02-13T04:39:52.111Z,99.99
2023-02-13T04:40:52.094Z,99.99
2023-02-13T04:41:52.068Z,99.99
2023-02-13T04:42:52.036Z,99.99
2023-02-13T04:43:52.004Z,99.99
2023-02-13T04:44:51.974Z,99.99
2023-02-13T04:45:51.984Z,99.99
2023-02-13T04:46:51.925Z,99.99
2023-02-13T04:47:51.898Z,99.99
2023-02-13T04:48:51.888Z,99.99
2023-02-13T04:49:51.845Z,99.99
2023-02-13T04:50:51.810Z,99.99
2023-02-13T04:51:51.780Z,99.99
2023-02-13T04:52:51.757Z,99.99
2023-02-13T04:53:51.728Z,99.99
2023-02-13T04:54:51.722Z,99.99
2023-02-13T04:55:51.684Z,99.99
2023-02-13T04:56:51.654Z,99.99
2023-02-13T04:57:51.624Z,99.99
2023-02-13T04:58:51.605Z,99.99
2023-02-13T04:59:51.569Z,99.99
2023-02-13T05:00:51.537Z,99.99
2023-02-13T05:01:51.519Z,99.99
2023-02-13T05:02:51.485Z,99.99
2023-02-13T05:03:51.453Z,99.99
2023-02-13T05:04:51.511Z,99.99
2023-02-13T05:05:51.445Z,99.99
2023-02-13T05:06:51.374Z,99.99
2023-02-13T05:07:51.360Z,99.99
2023-02-13T05:08:51.322Z,99.99
2023-02-13T05:09:51.282Z,99.99
2023-02-13T05:10:51.277Z,99.99
2023-02-13T05:11:51.237Z,99.99
2023-02-13T05:12:51.213Z,99.99
2023-02-13T05:13:51.197Z,99.99
2023-02-13T05:14:51.154Z,99.99
2023-02-13T05:15:51.153Z,99.99
2023-02-13T05:16:51.097Z,99.99
2023-02-13T05:17:51.079Z,99.99
2023-02-13T05:18:51.074Z,99.99
2023-02-13T05:19:51.017Z,99.99
2023-02-13T05:20:50.994Z,99.99
2023-02-13T05:21:51.033Z,99.99
2023-02-13T05:22:50.945Z,99.99
2023-02-13T05:23:50.908Z,99.99
2023-02-13T05:24:50.889Z,99.99
2023-02-13T05:25:50.851Z,99.99
2023-02-13T05:26:50.832Z,99.99
2023-02-13T05:27:50.834Z,99.99
2023-02-13T05:28:50.790Z,99.99
2023-02-13T05:29:50.750Z,99.99
2023-02-13T05:30:50.745Z,99.99
2023-02-13T05:31:50.761Z,99.99
2023-02-13T05:32:50.680Z,99.99
2023-02-13T05:33:50.638Z,99.99
2023-02-13T05:34:50.618Z,99.99
2023-02-13T05:35:50.599Z,99.99
2023-02-13T05:36:50.574Z,99.99
2023-02-13T05:37:50.538Z,99.99
2023-02-13T05:38:50.524Z,99.99
2023-02-13T05:39:50.489Z,99.99
2023-02-13T05:40:50.508Z,99.99
2023-02-13T05:41:50.494Z,99.99
2023-02-13T05:42:50.595Z,99.99
2023-02-13T05:43:50.382Z,99.99
2023-02-13T05:44:50.343Z,99.99
2023-02-13T05:45:50.319Z,99.99
2023-02-13T05:46:50.285Z,99.99
2023-02-13T05:47:50.270Z,99.99
2023-02-13T05:48:50.264Z,99.99
2023-02-13T05:49:50.205Z,99.99
2023-02-13T05:50:50.179Z,99.99
2023-02-13T05:51:50.162Z,99.99
2023-02-13T05:52:50.141Z,99.99
2023-02-13T05:53:50.094Z,99.99
2023-02-13T05:54:50.068Z,99.99
2023-02-13T05:55:50.048Z,99.99
2023-02-13T05:56:50.035Z,99.99
2023-02-13T05:57:50.011Z,99.99
2023-02-13T05:58:50.010Z,99.99
2023-02-13T05:59:49.953Z,99.99
2023-02-13T06:00:49.898Z,99.99
2023-02-13T06:01:49.880Z,99.99
2023-02-13T06:02:49.870Z,99.99
2023-02-13T06:03:49.926Z,99.99
2023-02-13T06:04:49.793Z,99.99
2023-02-13T06:05:49.814Z,99.99
2023-02-13T06:06:49.767Z,99.99
2023-02-13T06:07:49.709Z,99.99
2023-02-13T06:08:49.682Z,99.99
2023-02-13T06:09:49.651Z,99.99
2023-02-13T06:10:49.681Z,99.99
2023-02-13T06:11:49.593Z,99.99
2023-02-13T06:12:49.575Z,99.99
2023-02-13T06:13:49.563Z,99.99
2023-02-13T06:14:49.517Z,99.99
2023-02-13T06:15:49.496Z,99.99
2023-02-13T06:16:49.492Z,99.99
2023-02-13T06:17:49.441Z,99.99
2023-02-13T06:18:49.407Z,99.99
2023-02-13T06:19:49.383Z,99.99
2023-02-13T06:20:49.355Z,99.99
2023-02-13T06:21:49.364Z,99.99
2023-02-13T06:22:49.294Z,99.99
2023-02-13T06:23:49.338Z,99.99
2023-02-13T06:24:49.252Z,99.99
2023-02-13T06:25:49.222Z,99.99
2023-02-13T06:26:49.189Z,99.99
2023-02-13T06:27:49.156Z,99.99
2023-02-13T06:28:49.139Z,99.99
2023-02-13T06:29:49.107Z,99.99
2023-02-13T06:30:49.124Z,99.99
2023-02-13T06:31:49.138Z,99.99
2023-02-13T06:32:49.037Z,99.99
2023-02-13T06:33:48.999Z,99.99
2023-02-13T06:34:48.966Z,99.99
2023-02-13T06:35:48.956Z,99.99
2023-02-13T06:36:48.913Z,99.99
2023-02-13T06:37:48.885Z,99.99
2023-02-13T06:38:48.866Z,99.99
2023-02-13T06:39:48.828Z,99.99
2023-02-13T06:40:48.804Z,99.99
2023-02-13T06:41:48.792Z,99.99
2023-02-13T06:42:48.751Z,99.99
2023-02-13T06:43:48.736Z,99.99
2023-02-13T06:44:48.701Z,99.99
2023-02-13T06:45:48.666Z,99.99
2023-02-13T06:46:48.691Z,99.99
2023-02-13T06:47:48.605Z,99.99
2023-02-13T06:48:48.589Z,99.99
2023-02-13T06:49:48.553Z,99.99
2023-02-13T06:50:48.535Z,99.99
2023-02-13T06:51:48.498Z,99.99
2023-02-13T06:52:48.481Z,99.99
2023-02-13T06:53:48.448Z,99.99
2023-02-13T06:54:48.420Z,99.99
2023-02-13T06:55:48.381Z,99.99
2023-02-13T06:56:48.365Z,99.99
2023-02-13T06:57:48.335Z,99.99
2023-02-13T06:58:48.317Z,99.99
2023-02-13T06:59:48.284Z,99.99
2023-02-13T07:00:48.289Z,99.99
2023-02-13T07:01:48.222Z,99.99
2023-02-13T07:02:48.270Z,99.99
2023-02-13T07:03:48.207Z,99.99
2023-02-13T07:04:48.152Z,99.99
2023-02-13T07:05:48.119Z,99.99
2023-02-13T07:06:48.093Z,99.99
2023-02-13T07:07:48.065Z,99.99
2023-02-13T07:08:48.061Z,99.99
2023-02-13T07:09:48.000Z,99.99
2023-02-13T07:10:47.998Z,99.99
2023-02-13T07:11:47.964Z,99.99
2023-02-13T07:13:00.261Z,99.99
2023-02-13T07:13:47.889Z,99.99
2023-02-13T07:14:47.876Z,99.99
2023-02-13T07:15:47.881Z,99.99
2023-02-13T07:16:47.812Z,99.99
2023-02-13T07:17:47.784Z,99.99
2023-02-13T07:18:47.763Z,99.99
2023-02-13T07:19:47.725Z,99.99
2023-02-13T07:20:47.711Z,99.99
2023-02-13T07:21:47.677Z,99.99
2023-02-13T07:22:47.672Z,99.99
2023-02-13T07:23:47.643Z,99.99
2023-02-13T07:24:47.613Z,99.99
2023-02-13T07:25:47.575Z,99.99
2023-02-13T07:26:47.556Z,99.99
2023-02-13T07:27:47.520Z,99.99
2023-02-13T07:28:47.517Z,99.99
2023-02-13T07:29:47.477Z,99.99
2023-02-13T07:30:47.479Z,99.99
2023-02-13T07:31:47.419Z,99.99
2023-02-13T07:32:47.391Z,99.99
2023-02-13T07:33:47.350Z,99.99
2023-02-13T07:35:00.857Z,99.99
2023-02-13T07:35:47.309Z,99.99
2023-02-13T07:36:47.273Z,99.99
2023-02-13T07:37:47.241Z,99.99
2023-02-13T07:38:47.255Z,99.99
2023-02-13T07:39:47.197Z,99.99
2023-02-13T07:40:47.180Z,99.99
2023-02-13T07:41:47.144Z,99.99
2023-02-13T07:42:47.111Z,99.99
2023-02-13T07:43:47.081Z,99.99
2023-02-13T07:44:47.060Z,99.99
2023-02-13T07:45:47.058Z,99.99
2023-02-13T07:46:47.014Z,99.99
2023-02-13T07:47:46.987Z,99.99
2023-02-13T07:48:46.944Z,99.99
2023-02-13T07:49:46.945Z,99.99
2023-02-13T07:50:46.887Z,99.99
2023-02-13T07:51:46.879Z,99.99
2023-02-13T07:52:46.841Z,99.99
2023-02-13T07:53:46.829Z,99.99
2023-02-13T07:54:46.783Z,99.99
2023-02-13T07:55:46.769Z,99.99
2023-02-13T07:56:46.744Z,99.99
2023-02-13T07:57:46.724Z,99.99
2023-02-13T07:58:46.676Z,99.99
2023-02-13T07:59:46.659Z,99.99
2023-02-13T08:00:46.614Z,99.99
2023-02-13T08:01:46.638Z,99.99
2023-02-13T08:02:46.565Z,99.99
2023-02-13T08:03:46.565Z,99.99
2023-02-13T08:04:46.685Z,99.99
2023-02-13T08:05:46.495Z,99.99
2023-02-13T08:06:46.463Z,99.99
2023-02-13T08:07:46.438Z,99.99
2023-02-13T08:08:46.420Z,99.99
2023-02-13T08:09:46.381Z,99.99
2023-02-13T08:10:46.363Z,99.99
2023-02-13T08:11:46.347Z,99.99
2023-02-13T08:12:46.294Z,99.99
2023-02-13T08:13:46.271Z,99.99
2023-02-13T08:14:46.242Z,99.99
2023-02-13T08:15:46.219Z,99.99
2023-02-13T08:16:46.266Z,99.99
2023-02-13T08:17:46.168Z,99.99
2023-02-13T08:18:46.134Z,99.99
2023-02-13T08:19:46.112Z,99.99
2023-02-13T08:20:46.082Z,99.99
2023-02-13T08:21:46.064Z,99.99
2023-02-13T08:22:46.071Z,99.99
2023-02-13T08:23:46.072Z,99.99
2023-02-13T08:24:45.976Z,99.99
2023-02-13T08:25:45.967Z,99.99
2023-02-13T08:26:45.925Z,99.99
2023-02-13T08:27:45.919Z,99.99
2023-02-13T08:28:45.903Z,99.99
2023-02-13T08:29:45.858Z,99.99
2023-02-13T08:30:45.836Z,99.99
2023-02-13T08:31:45.868Z,99.99
2023-02-13T08:32:54.348Z,99.99
2023-02-13T08:33:45.773Z,99.99
2023-02-13T08:34:45.747Z,99.99
2023-02-13T08:35:45.700Z,99.99
2023-02-13T08:36:45.725Z,99.99
2023-02-13T08:37:46.668Z,99.99
2023-02-13T08:38:45.654Z,99.99
2023-02-13T08:39:45.621Z,99.99
2023-02-13T08:40:45.577Z,99.99
2023-02-13T08:41:45.550Z,99.99
2023-02-13T08:42:45.522Z,99.99
2023-02-13T08:43:45.514Z,99.99
2023-02-13T08:44:45.544Z,99.99
2023-02-13T08:45:45.480Z,99.99
2023-02-13T08:46:45.431Z,99.99
2023-02-13T08:47:45.419Z,99.99
2023-02-13T08:48:45.375Z,99.99
2023-02-13T08:49:45.364Z,99.99
2023-02-13T08:50:45.323Z,99.99
2023-02-13T08:51:45.317Z,99.99
2023-02-13T08:52:45.278Z,99.99
2023-02-13T08:53:45.259Z,99.99
2023-02-13T08:54:45.235Z,99.99
2023-02-13T08:55:45.214Z,99.99
2023-02-13T08:56:45.180Z,99.99
2023-02-13T08:57:45.161Z,99.99
2023-02-13T08:58:45.130Z,99.99
2023-02-13T08:59:45.118Z,99.99
2023-02-13T09:00:45.095Z,99.99
2023-02-13T09:01:45.092Z,99.99
2023-02-13T09:02:45.080Z,99.99
2023-02-13T09:03:45.018Z,99.99
2023-02-13T09:04:44.993Z,99.99
2023-02-13T09:05:44.972Z,99.99
2023-02-13T09:06:44.940Z,99.99
2023-02-13T09:07:44.920Z,99.99
2023-02-13T09:08:44.895Z,99.99
2023-02-13T09:09:44.885Z,99.99
2023-02-13T09:10:44.893Z,99.99
2023-02-13T09:11:44.836Z,99.99
2023-02-13T09:12:44.802Z,99.99
2023-02-13T09:13:44.779Z,99.99
2023-02-13T09:14:44.762Z,99.99
2023-02-13T09:15:44.752Z,99.99
2023-02-13T09:16:44.754Z,99.99
2023-02-13T09:17:44.708Z,99.99
2023-02-13T09:18:44.661Z,99.99
2023-02-13T09:19:44.651Z,99.99
2023-02-13T09:20:44.620Z,99.99
2023-02-13T09:21:44.600Z,99.99
2023-02-13T09:22:44.597Z,99.99
2023-02-13T09:23:44.574Z,99.99
2023-02-13T09:24:44.532Z,99.99
2023-02-13T09:25:44.511Z,99.99
2023-02-13T09:26:44.505Z,99.99
2023-02-13T09:27:44.466Z,99.99
2023-02-13T09:28:44.516Z,99.99
2023-02-13T09:29:44.417Z,99.99
2023-02-13T09:30:44.487Z,99.99
2023-02-13T09:31:44.577Z,99.99
2023-02-13T09:32:44.344Z,99.99
2023-02-13T09:33:44.335Z,99.99
2023-02-13T09:34:44.300Z,99.99
2023-02-13T09:35:44.281Z,99.99
2023-02-13T09:36:44.276Z,99.99
2023-02-13T09:37:44.237Z,99.99
2023-02-13T09:38:44.369Z,99.99
2023-02-13T09:39:44.185Z,99.99
2023-02-13T09:40:44.177Z,99.99
2023-02-13T09:41:44.144Z,99.99
2023-02-13T09:42:44.114Z,99.99
2023-02-13T09:43:44.108Z,99.99
2023-02-13T09:44:44.067Z,99.99
2023-02-13T09:45:44.045Z,99.99
2023-02-13T09:46:44.140Z,99.99
2023-02-13T09:47:44.038Z,99.99
2023-02-13T09:48:43.977Z,99.99
2023-02-13T09:49:43.959Z,99.99
2023-02-13T09:50:43.935Z,99.99
2023-02-13T09:51:43.910Z,99.99
2023-02-13T09:52:43.886Z,99.99
2023-02-13T09:53:43.921Z,99.99
2023-02-13T09:54:43.842Z,99.99
2023-02-13T09:55:43.817Z,99.99
2023-02-13T09:56:43.784Z,99.99
2023-02-13T09:57:43.796Z,99.99
2023-02-13T09:58:43.740Z,99.99
2023-02-13T09:59:43.724Z,99.99
2023-02-13T10:00:43.695Z,99.99
2023-02-13T10:01:43.777Z,99.99
2023-02-13T10:02:43.644Z,99.99
2023-02-13T10:03:43.643Z,99.99
2023-02-13T10:04:43.665Z,99.99
2023-02-13T10:05:43.609Z,99.99
2023-02-13T10:06:43.550Z,99.99
2023-02-13T10:07:43.577Z,99.99
2023-02-13T10:08:43.518Z,99.99
2023-02-13T10:09:43.488Z,99.99
2023-02-13T10:10:43.464Z,99.99
2023-02-13T10:11:43.452Z,99.99
2023-02-13T10:12:43.411Z,99.99
2023-02-13T10:13:43.433Z,99.99
2023-02-13T10:14:43.369Z,99.99
2023-02-13T10:15:43.437Z,99.99
2023-02-13T10:16:43.340Z,99.99
2023-02-13T10:17:43.339Z,99.99
2023-02-13T10:18:43.282Z,99.99
2023-02-13T10:19:43.266Z,99.99
2023-02-13T10:20:43.238Z,99.99
2023-02-13T10:21:43.226Z,99.99
2023-02-13T10:22:43.187Z,99.99
2023-02-13T10:23:43.167Z,99.99
2023-02-13T10:24:43.154Z,99.99
2023-02-13T10:25:43.164Z,99.99
2023-02-13T10:26:43.114Z,99.99
2023-02-13T10:27:43.086Z,99.99
2023-02-13T10:28:43.097Z,99.99
2023-02-13T10:29:43.061Z,98.38
2023-02-13T10:30:43.108Z,98.14
2023-02-13T10:31:43.108Z,98.28
2023-02-13T10:32:42.974Z,99.48
2023-02-13T10:33:42.964Z,99.99
2023-02-13T10:34:42.946Z,99.99
2023-02-13T10:35:42.918Z,99.99
2023-02-13T10:36:42.893Z,99.99
2023-02-13T10:37:42.882Z,99.99
2023-02-13T10:38:42.851Z,99.99
2023-02-13T10:39:42.845Z,99.99
2023-02-13T10:40:42.823Z,99.10
2023-02-13T10:41:42.806Z,99.96
2023-02-13T10:42:42.775Z,99.96
2023-02-13T10:43:42.771Z,98.14
2023-02-13T10:44:42.731Z,98.19
2023-02-13T10:45:42.714Z,97.56
2023-02-13T10:46:42.756Z,99.29
2023-02-13T10:47:42.670Z,98.85
2023-02-13T10:48:42.655Z,99.62
2023-02-13T10:49:42.638Z,99.29
2023-02-13T10:50:42.622Z,99.15
2023-02-13T10:51:42.600Z,96.61
2023-02-13T10:52:42.595Z,95.84
2023-02-13T10:53:42.580Z,95.75
2023-02-13T10:54:42.577Z,96.27
2023-02-13T10:55:42.528Z,95.22
2023-02-13T10:56:42.519Z,94.07
2023-02-13T10:57:42.510Z,95.12
2023-02-13T10:58:42.492Z,93.98
2023-02-13T10:59:42.441Z,92.97
2023-02-13T11:00:43.245Z,94.31
2023-02-13T11:01:42.488Z,95.70
2023-02-13T11:02:42.394Z,94.17
2023-02-13T11:03:42.373Z,93.78
2023-02-13T11:04:42.426Z,93.54
2023-02-13T11:05:42.343Z,94.21
2023-02-13T11:06:42.329Z,93.59
2023-02-13T11:07:42.318Z,94.17
2023-02-13T11:08:42.280Z,94.55
2023-02-13T11:09:42.294Z,93.59
2023-02-13T11:10:42.244Z,93.59
2023-02-13T11:11:42.244Z,93.49
2023-02-13T11:12:42.227Z,93.54
2023-02-13T11:13:42.196Z,95.31
2023-02-13T11:14:42.205Z,94.40
2023-02-13T11:15:42.186Z,93.35
2023-02-13T11:16:42.145Z,93.50
2023-02-13T11:17:42.132Z,95.51
2023-02-13T11:18:42.110Z,94.31
2023-02-13T11:19:42.109Z,93.45
2023-02-13T11:20:42.086Z,92.97
2023-02-13T11:21:42.066Z,94.12
2023-02-13T11:22:42.043Z,94.64
2023-02-13T11:23:42.049Z,94.35
2023-02-13T11:24:42.035Z,93.59
2023-02-13T11:25:42.016Z,93.06
2023-02-13T11:26:41.984Z,92.82
2023-02-13T11:27:41.973Z,92.54
2023-02-13T11:28:42.033Z,92.73
2023-02-13T11:29:41.940Z,92.92
2023-02-13T11:30:41.922Z,92.40
2023-02-13T11:31:41.997Z,92.21
2023-02-13T11:32:41.887Z,91.58
2023-02-13T11:33:41.884Z,93.40
2023-02-13T11:34:41.868Z,94.79
2023-02-13T11:35:41.857Z,94.21
2023-02-13T11:36:41.871Z,95.84
2023-02-13T11:37:41.820Z,96.13
2023-02-13T11:38:41.814Z,96.56
2023-02-13T11:39:41.799Z,96.66
2023-02-13T11:40:41.797Z,95.94
2023-02-13T11:41:41.778Z,94.74
2023-02-13T11:42:41.744Z,95.79
2023-02-13T11:43:41.734Z,96.18
2023-02-13T11:44:41.723Z,94.17
2023-02-13T11:45:41.699Z,93.02
2023-02-13T11:46:41.723Z,92.63
2023-02-13T11:47:41.672Z,91.77
2023-02-13T11:48:41.649Z,93.11
2023-02-13T11:49:41.644Z,91.29
2023-02-13T11:50:41.638Z,91.86
2023-02-13T11:51:41.621Z,92.06
2023-02-13T11:52:41.597Z,93.50
2023-02-13T11:53:41.584Z,93.64
2023-02-13T11:54:41.583Z,94.74
2023-02-13T11:55:41.602Z,94.50
2023-02-13T11:56:55.630Z,93.35
2023-02-13T11:57:41.533Z,93.16
2023-02-13T11:58:41.584Z,93.12
2023-02-13T11:59:41.504Z,92.83
2023-02-13T12:00:41.770Z,93.50
2023-02-13T12:01:41.474Z,93.59
2023-02-13T12:02:41.548Z,95.03
2023-02-13T12:03:41.479Z,94.84
2023-02-13T12:04:41.433Z,94.02
2023-02-13T12:05:41.431Z,94.60
2023-02-13T12:06:41.413Z,96.89
2023-02-13T12:07:41.400Z,96.84
2023-02-13T12:08:41.382Z,95.84
2023-02-13T12:09:41.358Z,94.89
2023-02-13T12:10:41.410Z,93.40
2023-02-13T12:11:41.357Z,93.30
2023-02-13T12:12:41.322Z,94.21
2023-02-13T12:13:41.308Z,94.07
2023-02-13T12:14:41.303Z,92.82
2023-02-13T12:15:41.275Z,93.16
2023-02-13T12:16:41.454Z,92.25
2023-02-13T12:17:41.257Z,94.12
2023-02-13T12:18:41.242Z,94.40
2023-02-13T12:19:41.227Z,93.45
2023-02-13T12:20:41.209Z,93.49
2023-02-13T12:21:41.201Z,92.63
2023-02-13T12:22:41.188Z,92.40
2023-02-13T12:23:41.174Z,92.68
2023-02-13T12:24:41.165Z,93.16
2023-02-13T12:25:41.170Z,93.21
2023-02-13T12:26:41.136Z,95.51
2023-02-13T12:27:41.116Z,95.07
2023-02-13T12:28:41.112Z,94.79
2023-02-13T12:29:41.174Z,93.64
2023-02-13T12:30:41.105Z,93.74
2023-02-13T12:31:41.108Z,93.40
2023-02-13T12:32:41.048Z,94.31
2023-02-13T12:33:41.034Z,95.27
2023-02-13T12:34:41.025Z,95.07
2023-02-13T12:35:41.006Z,93.83
2023-02-13T12:36:40.995Z,94.55
2023-02-13T12:37:41.001Z,93.88
2023-02-13T12:38:40.969Z,93.12
2023-02-13T12:39:40.951Z,94.50
2023-02-13T12:40:40.942Z,94.55
2023-02-13T12:41:40.922Z,94.84
2023-02-13T12:42:40.915Z,95.22
2023-02-13T12:43:40.902Z,93.69
2023-02-13T12:44:40.894Z,93.64
2023-02-13T12:45:40.891Z,94.21
2023-02-13T12:46:40.869Z,93.88
2023-02-13T12:47:40.846Z,96.66
2023-02-13T12:48:40.860Z,96.84
2023-02-13T12:49:40.821Z,95.03
2023-02-13T12:50:40.818Z,94.45
2023-02-13T12:51:40.860Z,94.41
2023-02-13T12:52:40.782Z,95.36